Time;durP1;ratioP1;P1;durP2;ratioP2;P2;SDS_P1;SDS_P2;PMS_P1;PMS_P2;Temp;Humidity;BMP_temperature;BMP_pressure;BME280_temperature;BME280_humidity;BME280_pressure;Samples;Min_cycle;Max_cycle;Signal;HPM_P1;HPM_P2
2023/08/24 00:00:37;;;;;;;9.48;8.57;;;;;;;22.44;100.00;99509.06;5061426;28;20193;-80
2023/08/24 00:03:15;;;;;;;9.63;8.73;;;;;;;22.38;100.00;99508.34;5055460;28;20245;-80
2023/08/24 00:05:45;;;;;;;9.68;8.73;;;;;;;22.34;100.00;99505.41;5071114;28;20204;-79
2023/08/24 00:08:14;;;;;;;10.55;9.50;;;;;;;22.29;100.00;99515.59;5065360;28;20197;-79
2023/08/24 00:10:49;;;;;;;9.43;8.63;;;;;;;22.24;100.00;99513.75;5056678;28;20232;-81
2023/08/24 00:13:17;;;;;;;10.07;9.05;;;;;;;22.24;100.00;99510.22;5062483;28;20333;-80
2023/08/24 00:15:47;;;;;;;10.30;9.43;;;;;;;22.17;100.00;99513.31;5056945;28;20251;-80
2023/08/24 00:18:19;;;;;;;9.82;9.02;;;;;;;22.14;100.00;99510.38;5059798;28;20190;-79
2023/08/24 00:20:49;;;;;;;10.73;9.68;;;;;;;22.10;100.00;99506.63;5056471;28;20201;-81
2023/08/24 00:23:17;;;;;;;11.60;9.20;;;;;;;22.07;100.00;99516.22;5059223;28;20197;-79
2023/08/24 00:25:46;;;;;;;10.45;9.43;;;;;;;22.02;100.00;99521.78;5054013;28;20263;-80
2023/08/24 00:28:22;;;;;;;9.95;9.05;;;;;;;22.00;100.00;99526.72;5071037;28;20196;-79
2023/08/24 00:30:51;;;;;;;10.02;8.95;;;;;;;21.99;100.00;99518.81;5057555;28;20213;-80
2023/08/24 00:33:19;;;;;;;10.63;9.73;;;;;;;21.93;100.00;99518.88;5057991;28;20741;-79
2023/08/24 00:35:49;;;;;;;10.40;9.50;;;;;;;21.87;100.00;99520.06;5066382;28;20208;-80
2023/08/24 00:38:17;;;;;;;9.85;9.05;;;;;;;21.82;100.00;99525.59;5043690;28;20201;-81
2023/08/24 00:40:44;;;;;;;9.63;8.77;;;;;;;21.79;100.00;99517.97;5052994;28;20268;-81
2023/08/24 00:43:13;;;;;;;9.88;9.05;;;;;;;21.75;100.00;99516.97;5043371;28;20222;-80
2023/08/24 00:45:43;;;;;;;10.15;9.25;;;;;;;21.72;100.00;99509.38;5040540;28;20708;-80
2023/08/24 00:48:15;;;;;;;10.02;9.05;;;;;;;21.68;100.00;99504.81;5049835;28;20336;-83
2023/08/24 00:50:44;;;;;;;11.00;9.68;;;;;;;21.65;100.00;99508.91;5050535;28;20277;-81
2023/08/24 00:53:14;;;;;;;10.18;9.27;;;;;;;21.62;100.00;99508.72;5050330;28;20197;-82
2023/08/24 00:55:51;;;;;;;9.82;8.93;;;;;;;21.53;100.00;99503.94;5043114;28;20220;-83
2023/08/24 00:58:20;;;;;;;10.27;9.27;;;;;;;21.50;100.00;99503.72;5048568;28;20186;-81
2023/08/24 01:00:49;;;;;;;9.98;9.07;;;;;;;21.43;100.00;99495.06;5043887;28;20199;-81
2023/08/24 01:03:27;;;;;;;10.60;9.75;;;;;;;21.41;100.00;99497.31;5026177;28;20692;-81
2023/08/24 01:05:55;;;;;;;10.00;9.20;;;;;;;21.38;100.00;99495.94;5044607;28;20208;-81
2023/08/24 01:08:24;;;;;;;9.95;9.13;;;;;;;21.35;100.00;99491.09;5057432;28;20201;-81
2023/08/24 01:11:19;;;;;;;10.00;9.13;;;;;;;21.36;100.00;99494.63;5040567;28;20203;-81
2023/08/24 01:14:02;;;;;;;10.48;9.50;;;;;;;21.34;100.00;99499.56;5007537;28;20222;-81
2023/08/24 01:16:40;;;;;;;10.13;9.07;;;;;;;21.29;100.00;99497.72;5042510;28;20228;-81
2023/08/24 01:19:21;;;;;;;10.40;9.50;;;;;;;21.27;100.00;99494.50;5035021;28;20222;-81
2023/08/24 01:21:50;;;;;;;10.88;9.88;;;;;;;21.26;100.00;99505.66;5019794;28;20251;-80
2023/08/24 01:24:33;;;;;;;9.95;9.25;;;;;;;21.23;100.00;99509.78;5009531;28;20215;-80
2023/08/24 01:27:05;;;;;;;9.95;9.02;;;;;;;21.23;100.00;99514.44;5009594;28;20255;-83
2023/08/24 01:29:33;;;;;;;10.65;9.85;;;;;;;21.22;100.00;99510.09;5038765;28;20284;-82
2023/08/24 01:32:04;;;;;;;10.27;9.38;;;;;;;21.16;100.00;99505.78;5026487;28;20301;-81
2023/08/24 01:34:41;;;;;;;10.10;9.30;;;;;;;21.13;100.00;99514.53;5042038;28;20209;-82
2023/08/24 01:37:12;;;;;;;10.05;9.15;;;;;;;21.13;100.00;99517.25;5025702;28;20230;-81
2023/08/24 01:40:12;;;;;;;9.82;9.10;;;;;;;21.10;100.00;99524.91;5021796;28;20283;-81
2023/08/24 01:42:53;;;;;;;9.88;9.07;;;;;;;21.03;100.00;99521.72;5026253;28;20219;-82
2023/08/24 01:45:25;;;;;;;10.05;9.27;;;;;;;20.99;100.00;99525.31;5035316;28;20215;-81
2023/08/24 01:47:56;;;;;;;10.32;9.45;;;;;;;20.91;100.00;99517.78;5006092;28;20204;-82
2023/08/24 01:50:24;;;;;;;9.77;8.98;;;;;;;20.92;100.00;99517.47;5030680;28;20196;-81
2023/08/24 01:52:52;;;;;;;10.85;9.85;;;;;;;20.91;100.00;99521.31;5022313;28;20657;-82
2023/08/24 01:55:21;;;;;;;10.60;9.70;;;;;;;20.89;100.00;99523.53;5025583;28;20206;-81
2023/08/24 01:57:48;;;;;;;10.55;9.50;;;;;;;20.87;100.00;99523.00;5046474;28;20189;-81
2023/08/24 02:00:26;;;;;;;11.05;10.15;;;;;;;20.89;100.00;99528.16;5007114;28;20224;-81
2023/08/24 02:02:57;;;;;;;11.50;10.50;;;;;;;20.89;100.00;99522.72;5040305;28;20671;-81
2023/08/24 02:05:28;;;;;;;10.52;9.57;;;;;;;20.84;100.00;99520.84;5002801;28;20233;-80
2023/08/24 02:08:07;;;;;;;;;;;;;;;;;;;;;
2023/08/24 02:10:37;;;;;;;11.07;9.95;;;;;;;20.73;100.00;99522.06;5041530;28;20198;-82
2023/08/24 02:13:04;;;;;;;11.10;10.10;;;;;;;20.72;100.00;99517.69;5025102;28;20288;-82
2023/08/24 02:15:33;;;;;;;10.70;9.70;;;;;;;20.67;100.00;99513.13;5026754;28;20697;-79
2023/08/24 02:18:01;;;;;;;11.15;10.20;;;;;;;20.69;100.00;99510.13;5025707;28;20189;-81
2023/08/24 02:20:34;;;;;;;10.43;9.52;;;;;;;20.67;100.00;99512.31;5016908;28;20245;-80
2023/08/24 02:23:05;;;;;;;11.15;10.25;;;;;;;20.64;100.00;99508.25;5036238;28;20194;-82
2023/08/24 02:25:33;;;;;;;10.23;9.43;;;;;;;20.60;100.00;99511.84;5031043;28;20695;-80
2023/08/24 02:28:02;;;;;;;9.85;9.05;;;;;;;20.58;100.00;99511.31;5022600;28;20202;-81
2023/08/24 02:30:38;;;;;;;11.30;10.30;;;;;;;20.51;100.00;99514.41;5019122;28;20199;-84
2023/08/24 02:33:11;;;;;;;10.88;10.07;;;;;;;20.48;100.00;99514.94;5021165;28;20199;-82
2023/08/24 02:35:41;;;;;;;11.23;10.23;;;;;;;20.43;100.00;99506.88;5028692;28;20206;-81
2023/08/24 02:38:08;;;;;;;10.57;9.80;;;;;;;20.39;100.00;99511.22;5033798;28;20201;-83
2023/08/24 02:40:39;;;;;;;9.98;9.05;;;;;;;20.36;100.00;99506.38;5041264;28;20278;-81
2023/08/24 02:43:07;;;;;;;10.88;9.98;;;;;;;20.37;100.00;99512.63;5069826;28;20225;-81
2023/08/24 02:45:39;;;;;;;10.40;9.57;;;;;;;20.35;100.00;99518.34;5041977;28;20325;-82
2023/08/24 02:48:16;;;;;;;11.50;9.70;;;;;;;20.32;100.00;99510.75;5057730;28;20256;-82
2023/08/24 02:50:48;;;;;;;11.02;10.18;;;;;;;20.30;100.00;99510.22;5080475;28;20209;-81
2023/08/24 02:53:21;;;;;;;11.05;10.15;;;;;;;20.29;100.00;99518.66;5064843;28;20242;-82
2023/08/24 02:55:48;;;;;;;10.98;10.07;;;;;;;20.22;100.00;99513.53;5069973;28;20215;-83
2023/08/24 02:58:18;;;;;;;10.75;9.85;;;;;;;20.20;100.00;99516.53;5072428;28;20198;-80
2023/08/24 03:00:46;;;;;;;11.25;10.27;;;;;;;20.18;100.00;99516.03;5071320;28;20382;-80
2023/08/24 03:03:17;;;;;;;10.98;10.00;;;;;;;20.18;100.00;99526.09;5067052;28;20677;-82
2023/08/24 03:06:02;;;;;;;10.77;9.85;;;;;;;20.17;100.00;99522.56;5054512;28;20232;-81
2023/08/24 03:08:35;;;;;;;11.80;10.82;;;;;;;20.15;100.00;99522.03;5074261;28;20667;-81
2023/08/24 03:11:02;;;;;;;10.55;9.68;;;;;;;20.16;100.00;99531.00;5071340;28;20287;-82
2023/08/24 03:13:31;;;;;;;11.15;10.30;;;;;;;20.15;100.00;99527.50;5057271;28;20198;-81
2023/08/24 03:16:03;;;;;;;11.18;10.18;;;;;;;20.10;100.00;99527.53;5046071;28;20217;-81
2023/08/24 03:18:32;;;;;;;11.90;10.80;;;;;;;20.04;100.00;99520.50;5056120;28;20222;-81
2023/08/24 03:21:03;;;;;;;11.23;10.32;;;;;;;20.04;100.00;99527.84;5055932;28;20212;-82
2023/08/24 03:23:36;;;;;;;11.80;10.90;;;;;;;20.02;100.00;99532.72;5045423;28;20207;-81
2023/08/24 03:26:11;;;;;;;11.48;10.57;;;;;;;20.01;100.00;99539.28;5056510;28;20304;-82
2023/08/24 03:28:41;;;;;;;11.27;10.27;;;;;;;19.99;100.00;99541.47;5058234;28;20220;-82
2023/08/24 03:31:11;;;;;;;12.45;11.55;;;;;;;19.94;100.00;99539.59;5065162;28;20211;-82
2023/08/24 03:33:39;;;;;;;12.60;11.55;;;;;;;19.93;100.00;99553.47;5056693;28;20205;-82
2023/08/24 03:36:12;;;;;;;11.98;11.07;;;;;;;19.90;100.00;99548.59;5059445;28;20220;-83
2023/08/24 03:38:40;;;;;;;12.48;11.20;;;;;;;19.86;100.00;99551.09;5067285;28;20221;-82
2023/08/24 03:41:19;;;;;;;13.10;11.90;;;;;;;19.80;100.00;99549.47;5047507;28;20230;-81
2023/08/24 03:43:50;;;;;;;12.98;11.93;;;;;;;19.74;100.00;99548.69;5032887;28;20252;-81
2023/08/24 03:46:19;;;;;;;12.68;11.65;;;;;;;19.73;100.00;99554.44;5038422;28;20210;-81
2023/08/24 03:48:48;;;;;;;12.52;11.52;;;;;;;19.68;100.00;99549.03;5029978;28;20201;-81
2023/08/24 03:51:17;;;;;;;13.20;11.93;;;;;;;19.64;100.00;99556.91;5034928;28;20213;-81
2023/08/24 03:53:50;;;;;;;13.13;11.93;;;;;;;19.57;100.00;99553.69;5027816;28;20678;-82
2023/08/24 03:56:17;;;;;;;13.00;12.00;;;;;;;19.55;100.00;99552.38;5030524;28;20220;-79
2023/08/24 03:58:52;;;;;;;13.30;12.25;;;;;;;19.54;100.00;99553.44;5050259;28;20205;-79
2023/08/24 04:01:25;;;;;;;13.67;12.53;;;;;;;19.51;100.00;99557.53;5055076;28;20207;-82
2023/08/24 04:03:57;;;;;;;13.57;12.18;;;;;;;19.52;100.00;99558.34;5029559;28;20694;-81
2023/08/24 04:06:28;;;;;;;13.45;12.35;;;;;;;19.47;100.00;99561.06;5029936;28;20696;-80
2023/08/24 04:08:58;;;;;;;13.27;12.18;;;;;;;19.47;100.00;99558.38;5047629;28;20217;-82
2023/08/24 04:11:26;;;;;;;13.25;12.18;;;;;;;19.47;100.00;99563.78;5021242;28;20215;-81
2023/08/24 04:13:58;;;;;;;13.45;12.45;;;;;;;19.47;100.00;99556.47;5050187;28;20206;-81
2023/08/24 04:16:25;;;;;;;13.02;12.02;;;;;;;19.50;100.00;99557.81;5019648;28;20209;-80
2023/08/24 04:18:53;;;;;;;13.10;11.98;;;;;;;19.50;100.00;99560.53;5032335;28;20224;-87
2023/08/24 04:21:31;;;;;;;13.37;12.07;;;;;;;19.54;100.00;99567.84;5055582;28;20656;-81
2023/08/24 04:24:01;;;;;;;13.27;12.07;;;;;;;19.54;100.00;99576.00;5039158;28;20197;-81
2023/08/24 04:26:30;;;;;;;12.73;11.55;;;;;;;19.55;100.00;99568.66;5044337;28;20228;-80
2023/08/24 04:28:58;;;;;;;13.05;11.93;;;;;;;19.57;100.00;99570.00;5018031;28;20201;-82
2023/08/24 04:31:47;;;;;;;12.65;11.55;;;;;;;19.65;100.00;99574.03;5041004;28;20232;-80
2023/08/24 04:34:41;;;;;;;13.37;12.17;;;;;;;19.71;100.00;99581.88;5012776;28;20601;-82
2023/08/24 04:37:12;;;;;;;12.80;11.52;;;;;;;19.79;100.00;99585.91;5045371;28;20201;-82
2023/08/24 04:39:42;;;;;;;12.32;11.40;;;;;;;19.86;100.00;99581.00;5051018;28;20211;-81
2023/08/24 04:42:18;;;;;;;12.65;11.48;;;;;;;19.93;100.00;99577.94;5047660;28;20287;-82
2023/08/24 04:44:54;;;;;;;12.38;11.27;;;;;;;20.01;100.00;99580.91;5048076;28;20704;-82
2023/08/24 04:47:24;;;;;;;12.50;11.38;;;;;;;20.15;100.00;99581.88;5054101;28;20278;-81
2023/08/24 04:49:57;;;;;;;13.60;12.32;;;;;;;20.27;100.00;99584.22;5019392;28;20210;-84
2023/08/24 04:52:25;;;;;;;12.77;11.75;;;;;;;20.40;100.00;99577.34;5039179;28;20751;-82
2023/08/24 04:54:55;;;;;;;11.93;11.00;;;;;;;20.53;100.00;99574.00;5032527;28;20213;-84
2023/08/24 04:57:31;;;;;;;11.55;10.52;;;;;;;20.66;100.00;99573.31;5025367;28;20209;-82
2023/08/24 05:00:01;;;;;;;11.73;10.73;;;;;;;20.80;100.00;99573.44;5026214;28;20208;-83
2023/08/24 05:02:28;;;;;;;11.00;10.20;;;;;;;20.94;100.00;99571.69;5034056;28;20187;-82
2023/08/24 05:05:00;;;;;;;11.52;10.63;;;;;;;21.04;100.00;99569.63;5040530;28;20632;-80
2023/08/24 05:07:29;;;;;;;11.10;10.10;;;;;;;21.16;100.00;99569.28;5023317;28;20260;-82
2023/08/24 05:10:03;;;;;;;11.48;10.55;;;;;;;21.27;100.00;99565.34;5040986;28;20197;-80
2023/08/24 05:12:35;;;;;;;11.23;10.15;;;;;;;21.38;100.00;99574.16;5048143;28;20678;-80
2023/08/24 05:15:06;;;;;;;11.05;10.13;;;;;;;21.43;100.00;99571.38;5049479;28;20212;-81
2023/08/24 05:17:35;;;;;;;10.45;9.45;;;;;;;21.49;100.00;99572.94;5042831;28;20289;-80
2023/08/24 05:20:08;;;;;;;11.05;10.05;;;;;;;21.59;100.00;99566.56;5044744;28;20661;-80
2023/08/24 05:22:40;;;;;;;10.25;9.43;;;;;;;21.66;100.00;99565.06;5038151;28;20209;-82
2023/08/24 05:25:10;;;;;;;10.43;9.32;;;;;;;21.77;100.00;99561.13;5023016;28;20222;-80
2023/08/24 05:27:38;;;;;;;10.13;9.23;;;;;;;21.88;100.00;99568.03;5020555;28;20288;-80
2023/08/24 05:30:06;;;;;;;10.30;9.50;;;;;;;22.02;100.00;99562.69;5033491;28;20213;-79
2023/08/24 05:32:38;;;;;;;10.27;9.48;;;;;;;22.18;100.00;99574.16;5044969;28;20644;-81
2023/08/24 05:35:11;;;;;;;10.10;9.30;;;;;;;22.32;100.00;99570.38;5045080;28;20201;-78
2023/08/24 05:37:42;;;;;;;10.25;9.30;;;;;;;22.46;100.00;99566.88;5042480;28;20218;-78
2023/08/24 05:40:10;;;;;;;10.02;9.02;;;;;;;22.59;100.00;99564.19;5039450;28;20238;-78
2023/08/24 05:42:38;;;;;;;10.32;9.45;;;;;;;22.73;100.00;99558.78;5032091;28;20219;-79
2023/08/24 05:45:06;;;;;;;9.93;9.13;;;;;;;22.87;100.00;99558.78;5038034;28;20214;-80
2023/08/24 05:47:39;;;;;;;10.50;9.48;;;;;;;22.98;100.00;99561.03;5039953;28;20202;-80
2023/08/24 05:50:12;;;;;;;10.10;9.18;;;;;;;23.13;100.00;99560.75;5041801;28;20204;-80
2023/08/24 05:52:40;;;;;;;9.20;8.48;;;;;;;23.26;100.00;99559.13;5048438;28;20293;-80
2023/08/24 05:55:08;;;;;;;10.38;9.50;;;;;;;23.39;100.00;99557.47;5048762;28;20675;-79
2023/08/24 05:57:38;;;;;;;10.30;9.20;;;;;;;23.51;100.00;99557.81;5050253;28;20228;-81
2023/08/24 06:00:13;;;;;;;9.35;8.55;;;;;;;23.64;100.00;99556.97;5038814;28;20272;-81
2023/08/24 06:02:41;;;;;;;9.65;8.77;;;;;;;23.77;100.00;99555.31;5048154;28;20199;-81
2023/08/24 06:05:08;;;;;;;9.35;8.65;;;;;;;23.90;100.00;99555.28;5017059;28;20224;-81
2023/08/24 06:07:36;;;;;;;9.63;8.82;;;;;;;24.01;100.00;99558.59;5046979;28;20193;-82
2023/08/24 06:10:07;;;;;;;9.95;8.95;;;;;;;24.12;100.00;99560.75;5053702;28;20185;-80
2023/08/24 06:12:57;;;;;;;9.27;8.52;;;;;;;24.27;100.00;99567.03;5040550;28;20203;-82
2023/08/24 06:15:27;;;;;;;10.90;9.80;;;;;;;24.38;100.00;99561.00;5043037;28;20248;-81
2023/08/24 06:17:54;;;;;;;11.05;10.07;;;;;;;24.51;100.00;99562.84;5041768;28;20205;-81
2023/08/24 06:20:22;;;;;;;10.57;9.63;;;;;;;24.63;100.00;99556.00;5027477;28;20219;-81
2023/08/24 06:22:55;;;;;;;10.77;9.70;;;;;;;24.77;100.00;99557.53;5051500;28;20685;-81
2023/08/24 06:25:23;;;;;;;9.88;9.07;;;;;;;24.86;100.00;99557.56;5041442;28;20223;-82
2023/08/24 06:27:50;;;;;;;9.95;9.20;;;;;;;24.93;100.00;99550.53;5040829;28;20730;-84
2023/08/24 06:30:21;;;;;;;11.65;10.50;;;;;;;25.02;100.00;99555.22;5046192;28;20233;-81
2023/08/24 06:32:58;;;;;;;11.55;10.45;;;;;;;25.10;100.00;99558.03;5046204;28;20198;-81
2023/08/24 06:35:25;;;;;;;11.27;10.35;;;;;;;25.12;100.00;99553.03;5047669;28;20182;-81
2023/08/24 06:37:55;;;;;;;11.00;10.15;;;;;;;25.13;100.00;99560.13;5039731;28;20290;-83
2023/08/24 06:40:31;;;;;;;11.93;10.68;;;;;;;25.27;100.00;99560.81;5042484;28;20241;-81
2023/08/24 06:42:58;;;;;;;10.38;9.40;;;;;;;25.41;100.00;99552.47;5047025;28;20238;-81
2023/08/24 06:45:26;;;;;;;11.95;10.35;;;;;;;25.46;100.00;99557.81;5046271;28;20213;-79
2023/08/24 06:47:56;;;;;;;11.93;10.73;;;;;;;25.00;100.00;99552.81;5048353;28;20225;-82
2023/08/24 06:50:26;;;;;;;11.43;10.10;;;;;;;24.98;100.00;99552.31;5039155;28;20267;-79
2023/08/24 06:53:03;;;;;;;11.40;10.38;;;;;;;25.21;100.00;99551.13;5045206;28;20205;-80
2023/08/24 06:55:33;;;;;;;12.23;11.10;;;;;;;25.20;100.00;99556.91;5011781;28;20217;-81
2023/08/24 06:58:00;;;;;;;11.38;10.38;;;;;;;25.25;100.00;99543.88;5050127;28;20196;-81
2023/08/24 07:00:30;;;;;;;11.25;10.27;;;;;;;25.45;100.00;99550.69;5045594;28;20203;-81
2023/08/24 07:03:00;;;;;;;12.45;10.60;;;;;;;25.55;100.00;99552.38;5041532;28;20701;-82
2023/08/24 07:05:40;;;;;;;12.40;11.13;;;;;;;25.49;100.00;99550.84;5039006;28;20218;-82
2023/08/24 07:08:13;;;;;;;11.85;10.75;;;;;;;25.70;100.00;99554.66;5038756;28;20190;-80
2023/08/24 07:10:42;;;;;;;11.85;10.15;;;;;;;25.85;100.00;99546.75;5048495;28;20208;-81
2023/08/24 07:13:15;;;;;;;12.32;11.32;;;;;;;25.67;100.00;99547.84;5010108;28;20261;-81
2023/08/24 07:15:46;;;;;;;12.18;11.02;;;;;;;25.66;100.00;99551.72;5039136;28;20253;-81
2023/08/24 07:18:13;;;;;;;11.05;10.05;;;;;;;25.88;100.00;99552.72;5028619;28;20194;-81
2023/08/24 07:20:41;;;;;;;11.45;10.45;;;;;;;26.09;100.00;99551.75;5038851;28;20563;-80
2023/08/24 07:23:11;;;;;;;10.68;9.70;;;;;;;26.27;100.00;99558.06;5022840;28;20667;-80
2023/08/24 07:25:41;;;;;;;14.00;10.57;;;;;;;26.25;100.00;99552.91;5025490;28;20603;-80
2023/08/24 07:28:09;;;;;;;12.40;10.35;;;;;;;26.43;100.00;99552.88;5041893;28;20186;-82
2023/08/24 07:30:39;;;;;;;15.55;9.98;;;;;;;26.44;100.00;99560.00;5046626;28;20194;-82
2023/08/24 07:33:06;;;;;;;11.27;9.88;;;;;;;26.41;100.00;99555.16;5029489;28;20248;-81
2023/08/24 07:35:35;;;;;;;17.23;10.73;;;;;;;26.51;100.00;99557.53;5045271;28;20237;-80
2023/08/24 07:38:04;;;;;;;11.80;10.57;;;;;;;26.47;100.00;99556.56;5007333;28;20198;-80
2023/08/24 07:40:38;;;;;;;11.57;10.10;;;;;;;26.70;100.00;99560.72;5046203;28;20272;-78
2023/08/24 07:43:09;;;;;;;13.80;9.57;;;;;;;26.66;100.00;99554.28;5042962;28;20202;-79
2023/08/24 07:45:36;;;;;;;11.05;9.95;;;;;;;26.48;100.00;99561.75;5054345;28;20213;-81
2023/08/24 07:48:06;;;;;;;12.32;10.13;;;;;;;26.54;100.00;99556.91;5051188;28;20197;-81
2023/08/24 07:50:33;;;;;;;17.15;9.75;;;;;;;26.70;100.00;99558.78;5021782;28;20205;-80
2023/08/24 07:53:02;;;;;;;18.00;10.32;;;;;;;26.46;100.00;99553.03;5054096;28;20197;-82
2023/08/24 07:55:33;;;;;;;18.75;9.57;;;;;;;26.69;100.00;99557.16;5011320;28;20210;-80
2023/08/24 07:58:03;;;;;;;16.92;10.32;;;;;;;26.46;100.00;99552.22;5049879;28;20733;-81
2023/08/24 08:00:39;;;;;;;13.15;9.40;;;;;;;26.69;100.00;99551.66;5057845;28;20250;-81
2023/08/24 08:03:06;;;;;;;10.40;9.27;;;;;;;26.79;100.00;99547.75;5035439;28;20194;-82
2023/08/24 08:05:35;;;;;;;12.85;10.10;;;;;;;26.87;100.00;99554.41;5059399;28;20666;-82
2023/08/24 08:08:04;;;;;;;16.35;10.18;;;;;;;26.90;100.00;99554.56;5032359;28;20227;-81
2023/08/24 08:10:32;;;;;;;16.10;9.55;;;;;;;27.04;100.00;99548.84;5038367;28;20191;-81
2023/08/24 08:13:00;;;;;;;12.02;9.45;;;;;;;27.20;100.00;99554.59;5053436;28;20194;-79
2023/08/24 08:15:30;;;;;;;10.98;10.05;;;;;;;27.17;100.00;99547.78;5053293;28;20753;-80
2023/08/24 08:18:03;;;;;;;10.85;9.95;;;;;;;27.39;100.00;99553.00;5042533;28;20222;-79
2023/08/24 08:20:34;;;;;;;10.57;9.48;;;;;;;27.64;100.00;99554.03;5026237;28;20239;-80
2023/08/24 08:23:03;;;;;;;10.45;9.63;;;;;;;27.82;100.00;99549.19;5044174;28;20286;-79
2023/08/24 08:25:34;;;;;;;10.55;9.65;;;;;;;27.94;100.00;99543.78;5041231;28;20236;-83
2023/08/24 08:28:01;;;;;;;10.93;9.88;;;;;;;28.09;100.00;99547.88;5032256;28;20201;-80
2023/08/24 08:30:29;;;;;;;10.68;9.50;;;;;;;28.28;100.00;99548.19;5018535;28;20249;-81
2023/08/24 08:33:01;;;;;;;10.15;9.15;;;;;;;28.24;100.00;99550.00;5038566;28;20195;-79
2023/08/24 08:35:28;;;;;;;10.52;9.63;;;;;;;28.34;100.00;99546.84;5040067;28;20675;-82
2023/08/24 08:37:58;;;;;;;10.73;9.60;;;;;;;28.37;100.00;99546.13;5043481;28;20217;-82
2023/08/24 08:40:31;;;;;;;9.43;8.55;;;;;;;28.58;100.00;99540.59;5043341;28;20265;-82
2023/08/24 08:42:58;;;;;;;9.00;8.20;;;;;;;28.27;100.00;99538.31;5022790;28;20210;-82
2023/08/24 08:45:26;;;;;;;8.88;8.07;;;;;;;28.42;100.00;99534.91;5036871;28;20190;-79
2023/08/24 08:48:01;;;;;;;10.57;9.77;;;;;;;28.22;100.00;99533.03;5046816;28;20712;-80
2023/08/24 08:50:33;;;;;;;11.32;9.68;;;;;;;28.10;100.00;99532.94;5041534;28;20193;-80
2023/08/24 08:53:00;;;;;;;12.35;9.63;;;;;;;28.30;100.00;99532.94;5035544;28;20305;-80
2023/08/24 08:55:29;;;;;;;12.93;9.18;;;;;;;28.33;100.00;99531.44;5041618;28;20186;-85
2023/08/24 08:58:00;;;;;;;9.70;8.77;;;;;;;28.68;100.00;99524.44;5024809;28;20198;-81
2023/08/24 09:00:28;;;;;;;9.45;8.65;;;;;;;28.86;100.00;99523.09;5020632;28;20208;-82
2023/08/24 09:02:56;;;;;;;9.52;8.63;;;;;;;28.82;100.00;99524.94;5016382;28;20252;-81
2023/08/24 09:05:26;;;;;;;9.70;8.70;;;;;;;28.43;100.00;99517.25;5020478;28;20190;-80
2023/08/24 09:07:56;;;;;;;9.13;8.27;;;;;;;28.54;100.00;99523.13;5039377;28;20256;-79
2023/08/24 09:10:31;;;;;;;9.85;9.05;;;;;;;28.37;100.00;99521.34;5053510;28;20238;-80
2023/08/24 09:13:06;;;;;;;10.20;9.20;;;;;;;28.35;100.00;99516.19;5020663;28;20277;-82
2023/08/24 09:15:37;;;;;;;10.00;9.13;;;;;;;28.51;100.00;99519.09;5042394;28;20194;-80
2023/08/24 09:18:04;;;;;;;9.65;8.95;;;;;;;28.38;100.00;99517.44;5040372;28;20307;-81
2023/08/24 09:20:36;;;;;;;8.95;8.20;;;;;;;28.70;100.00;99516.59;5044018;28;20198;-81
2023/08/24 09:23:18;;;;;;;8.93;8.07;;;;;;;28.78;100.00;99506.66;5032060;28;20190;-80
2023/08/24 09:25:49;;;;;;;8.13;7.32;;;;;;;28.59;100.00;99520.97;5014506;28;20732;-79
2023/08/24 09:28:23;;;;;;;8.40;7.68;;;;;;;28.55;100.00;99508.22;5044172;28;20217;-80
2023/08/24 09:31:00;;;;;;;8.77;7.97;;;;;;;28.76;100.00;99503.44;5017553;28;20213;-81
2023/08/24 09:33:29;;;;;;;8.60;7.50;;;;;;;28.95;100.00;99503.69;5018086;28;20198;-81
2023/08/24 09:36:01;;;;;;;8.77;7.72;;;;;;;29.04;100.00;99503.56;5039649;28;20213;-81
2023/08/24 09:38:35;;;;;;;8.68;7.78;;;;;;;29.12;100.00;99502.63;5040182;28;20202;-81
2023/08/24 09:41:06;;;;;;;7.93;7.20;;;;;;;29.15;100.00;99494.50;5045542;28;20343;-79
2023/08/24 09:43:40;;;;;;;8.40;7.53;;;;;;;29.24;100.00;99495.19;5053823;28;20754;-81
2023/08/24 09:46:09;;;;;;;7.78;7.07;;;;;;;29.41;100.00;99490.56;5065496;28;20305;-80
2023/08/24 09:48:41;;;;;;;6.88;6.38;;;;;;;29.56;100.00;99489.84;5065372;28;20193;-81
2023/08/24 09:51:16;;;;;;;7.82;6.95;;;;;;;29.71;100.00;99489.94;5065487;28;20249;-80
2023/08/24 09:53:50;;;;;;;7.82;7.22;;;;;;;29.90;100.00;99489.31;5058182;28;20197;-80
2023/08/24 09:56:20;;;;;;;9.15;7.50;;;;;;;29.75;100.00;99477.03;5055890;28;20197;-79
2023/08/24 09:58:51;;;;;;;8.25;7.40;;;;;;;29.40;100.00;99477.91;5058744;28;20220;-81
2023/08/24 10:01:22;;;;;;;8.80;7.88;;;;;;;29.44;100.00;99481.63;5066764;28;20201;-79
2023/08/24 10:04:00;;;;;;;8.38;7.60;;;;;;;29.73;100.00;99473.00;5056029;28;20194;-82
2023/08/24 10:06:50;;;;;;;8.13;7.35;;;;;;;29.52;100.00;99464.91;5059494;28;20219;-80
2023/08/24 10:09:23;;;;;;;8.57;7.82;;;;;;;29.57;100.00;99470.19;5036777;28;20658;-83
2023/08/24 10:11:56;;;;;;;8.65;7.38;;;;;;;29.90;100.00;99460.91;5055003;28;20689;-80
2023/08/24 10:15:03;;;;;;;7.90;7.10;;;;;;;29.75;100.00;99463.22;5068950;28;20200;-81
2023/08/24 10:17:32;;;;;;;8.63;7.30;;;;;;;30.30;100.00;99456.09;5060327;28;20202;-80
2023/08/24 10:20:01;;;;;;;7.93;7.22;;;;;;;30.06;100.00;99458.97;5053328;28;20194;-80
2023/08/24 10:22:32;;;;;;;8.00;7.03;;;;;;;30.25;100.00;99456.34;5067925;28;20201;-81
2023/08/24 10:25:00;;;;;;;7.93;6.78;;;;;;;30.55;100.00;99449.28;5062183;28;20189;-81
2023/08/24 10:27:33;;;;;;;7.72;6.63;;;;;;;30.23;100.00;99452.34;5054400;28;20213;-81
2023/08/24 10:30:01;;;;;;;9.27;6.72;;;;;;;30.43;100.00;99454.84;5058850;28;20201;-80
2023/08/24 10:32:30;;;;;;;7.55;6.88;;;;;;;30.35;100.00;99444.78;5054142;28;20198;-82
2023/08/24 10:34:58;;;;;;;8.95;6.65;;;;;;;30.51;100.00;99442.88;5063013;28;20718;-80
2023/08/24 10:37:26;;;;;;;7.20;6.43;;;;;;;30.68;100.00;99449.97;5062813;28;20205;-81
2023/08/24 10:39:53;;;;;;;7.28;6.50;;;;;;;30.37;100.00;99447.19;5060280;28;20197;-82
2023/08/24 10:42:23;;;;;;;7.38;6.20;;;;;;;30.44;100.00;99441.81;5028423;28;20667;-83
2023/08/24 10:44:53;;;;;;;6.72;5.53;;;;;;;30.96;100.00;99439.59;5044036;28;20225;-81
2023/08/24 10:47:20;;;;;;;6.70;5.88;;;;;;;31.25;100.00;99432.78;5048840;28;20222;-80
2023/08/24 10:49:56;;;;;;;8.10;6.57;;;;;;;31.21;99.54;99431.91;5044100;28;20269;-79
2023/08/24 10:52:25;;;;;;;6.32;5.72;;;;;;;31.18;99.39;99417.97;5039280;28;20283;-80
2023/08/24 10:54:53;;;;;;;6.80;6.20;;;;;;;31.30;100.00;99426.97;5039072;28;20194;-80
2023/08/24 10:57:27;;;;;;;7.25;6.32;;;;;;;31.25;100.00;99415.38;5028089;28;20241;-79
2023/08/24 11:00:09;;;;;;;6.53;6.03;;;;;;;31.65;98.12;99407.56;5020302;28;20202;-80
2023/08/24 11:02:43;;;;;;;6.82;6.15;;;;;;;31.71;98.04;99405.31;5049152;28;20290;-82
2023/08/24 11:05:29;;;;;;;7.43;6.25;;;;;;;31.96;97.90;99405.78;5035216;28;20201;-80
2023/08/24 11:07:59;;;;;;;8.90;6.35;;;;;;;31.24;100.00;99414.56;5048076;28;20574;-79
2023/08/24 11:10:34;;;;;;;7.15;6.45;;;;;;;31.42;100.00;99401.91;5046337;28;20228;-79
2023/08/24 11:13:03;;;;;;;7.28;6.53;;;;;;;31.68;98.64;99398.50;5041222;28;20193;-80
2023/08/24 11:15:41;;;;;;;6.85;6.35;;;;;;;31.16;98.39;99400.94;5042553;28;20674;-81
2023/08/24 11:18:22;;;;;;;6.60;6.03;;;;;;;31.31;97.34;99389.81;5043260;28;20316;-81
2023/08/24 11:20:56;;;;;;;7.00;6.32;;;;;;;31.49;96.39;99392.97;5040155;28;20285;-80
2023/08/24 11:23:24;;;;;;;7.78;6.70;;;;;;;31.21;95.79;99404.25;5018162;28;20190;-82
2023/08/24 11:25:56;;;;;;;11.00;6.70;;;;;;;31.29;95.69;99389.38;5048145;28;20659;-80
2023/08/24 11:28:31;;;;;;;8.93;6.28;;;;;;;31.22;96.60;99386.44;5035630;28;20227;-80
2023/08/24 11:30:58;;;;;;;6.63;5.90;;;;;;;30.98;94.83;99393.00;5047233;28;20638;-80
2023/08/24 11:33:33;;;;;;;7.32;6.63;;;;;;;31.34;95.84;99396.59;5046154;28;20248;-80
2023/08/24 11:36:07;;;;;;;6.53;5.93;;;;;;;31.53;95.64;99384.72;5042225;28;20236;-80
2023/08/24 11:38:44;;;;;;;6.40;5.90;;;;;;;31.26;94.54;99383.78;5034793;28;20186;-81